Aultbea, United Kingdom
Current Conditions -  °F | °C
As of 12:50 PM on Friday 31 Oct 2014 (Local Time) from EGPO Reporting Station
Moderate Rain Moderate Rain  
Wind Chill: 59°   Ceiling: 1600
Heat Index: 59°   Visibility: 2.1mi
Dew Point: 57°   Wind: 26mph
Humidity: 94%   Direction: 180°S
Pressure: 29.5"   Gusts: NA
Location:  57.87°N, 5.63°W
Report Text: EGPO 311250Z 18023KT 3500 RADZ BR FEW007 SCT009 BKN016 15/14 Q0999
Loading
Personal Weather Stations






























Interactive Weather Map
Tropical Storm Tracking
New forecast layout! Learn more

10-Day Weather Forecast

Advertisements
Track Severe Weather on mobile